sensor_id;sensor_type;location;lat;lon;timestamp;pressure;altitude;pressure_sealevel;temperature;humidity
64908;BME280;69061;52.236;5.188;2023-04-08T00:01:52;102254.03;;;11.03;90.83
64908;BME280;69061;52.236;5.188;2023-04-08T00:04:19;102264.03;;;11.18;90.79
64908;BME280;69061;52.236;5.188;2023-04-08T00:06:45;102260.69;;;11.21;90.23
64908;BME280;69061;52.236;5.188;2023-04-08T00:09:12;102265.59;;;11.19;89.18
64908;BME280;69061;52.236;5.188;2023-04-08T00:11:38;102259.47;;;11.19;89.16
64908;BME280;69061;52.236;5.188;2023-04-08T00:14:07;102264.56;;;11.11;88.22
64908;BME280;69061;52.236;5.188;2023-04-08T00:16:33;102263.81;;;11.11;89.42
64908;BME280;69061;52.236;5.188;2023-04-08T00:19:00;102242.47;;;10.99;89.88
64908;BME280;69061;52.236;5.188;2023-04-08T00:21:26;102261.44;;;11.09;89.53
64908;BME280;69061;52.236;5.188;2023-04-08T00:23:53;102257.91;;;11.05;88.29
64908;BME280;69061;52.236;5.188;2023-04-08T00:26:20;102262.22;;;10.98;88.66
64908;BME280;69061;52.236;5.188;2023-04-08T00:28:47;102263.53;;;10.91;88.64
64908;BME280;69061;52.236;5.188;2023-04-08T00:31:15;102266.19;;;10.91;89.73
64908;BME280;69061;52.236;5.188;2023-04-08T00:33:42;102265.44;;;10.91;89.21
64908;BME280;69061;52.236;5.188;2023-04-08T00:36:08;102273.75;;;10.89;89.88
64908;BME280;69061;52.236;5.188;2023-04-08T00:38:35;102272.63;;;10.90;89.68
64908;BME280;69061;52.236;5.188;2023-04-08T00:41:01;102269.19;;;10.90;88.79
64908;BME280;69061;52.236;5.188;2023-04-08T00:43:28;102270.81;;;10.82;88.24
64908;BME280;69061;52.236;5.188;2023-04-08T00:45:54;102250.41;;;10.74;88.88
64908;BME280;69061;52.236;5.188;2023-04-08T00:48:22;102270.72;;;10.78;89.26
64908;BME280;69061;52.236;5.188;2023-04-08T00:50:49;102275.25;;;10.78;89.04
64908;BME280;69061;52.236;5.188;2023-04-08T00:53:17;102274.91;;;10.79;91.17
64908;BME280;69061;52.236;5.188;2023-04-08T00:55:44;102264.28;;;10.79;90.58
64908;BME280;69061;52.236;5.188;2023-04-08T00:58:10;102269.28;;;10.81;90.52
64908;BME280;69061;52.236;5.188;2023-04-08T01:00:41;102273.06;;;10.80;90.23
64908;BME280;69061;52.236;5.188;2023-04-08T01:03:13;102266.16;;;10.79;91.66
64908;BME280;69061;52.236;5.188;2023-04-08T01:05:51;102267.97;;;10.87;91.26
64908;BME280;69061;52.236;5.188;2023-04-08T01:08:22;102269.97;;;10.90;90.50
64908;BME280;69061;52.236;5.188;2023-04-08T01:10:53;102279.50;;;10.91;89.79
64908;BME280;69061;52.236;5.188;2023-04-08T01:13:22;102281.72;;;10.89;90.22
64908;BME280;69061;52.236;5.188;2023-04-08T01:15:52;102281.81;;;10.93;89.00
64908;BME280;69061;52.236;5.188;2023-04-08T01:18:20;102288.81;;;10.85;89.25
64908;BME280;69061;52.236;5.188;2023-04-08T01:20:49;102280.03;;;10.85;89.17
64908;BME280;69061;52.236;5.188;2023-04-08T01:23:21;102283.69;;;10.80;90.14
64908;BME280;69061;52.236;5.188;2023-04-08T01:25:51;102286.03;;;10.82;90.00
64908;BME280;69061;52.236;5.188;2023-04-08T01:28:18;102282.47;;;10.77;89.36
64908;BME280;69061;52.236;5.188;2023-04-08T01:30:46;102280.56;;;10.78;89.26
64908;BME280;69061;52.236;5.188;2023-04-08T01:33:17;102273.59;;;10.73;90.96
64908;BME280;69061;52.236;5.188;2023-04-08T01:35:44;102280.56;;;10.78;89.98
64908;BME280;69061;52.236;5.188;2023-04-08T01:38:14;102284.22;;;10.73;89.80
64908;BME280;69061;52.236;5.188;2023-04-08T01:40:42;102283.66;;;10.68;89.77
64908;BME280;69061;52.236;5.188;2023-04-08T01:43:12;102282.41;;;10.65;90.75
64908;BME280;69061;52.236;5.188;2023-04-08T01:45:40;102282.53;;;10.69;91.79
64908;BME280;69061;52.236;5.188;2023-04-08T01:48:08;102280.34;;;10.71;91.88
64908;BME280;69061;52.236;5.188;2023-04-08T01:50:34;102292.53;;;10.72;92.60
64908;BME280;69061;52.236;5.188;2023-04-08T01:53:02;102277.88;;;10.66;90.91
64908;BME280;69061;52.236;5.188;2023-04-08T01:55:31;102292.41;;;10.68;91.73
64908;BME280;69061;52.236;5.188;2023-04-08T01:57:59;102295.25;;;10.63;90.75
64908;BME280;69061;52.236;5.188;2023-04-08T02:00:29;102297.47;;;10.61;91.79
64908;BME280;69061;52.236;5.188;2023-04-08T02:02:56;102281.38;;;10.57;91.49
64908;BME280;69061;52.236;5.188;2023-04-08T02:05:23;102285.94;;;10.57;92.01
64908;BME280;69061;52.236;5.188;2023-04-08T02:07:50;102287.47;;;10.58;92.18
64908;BME280;69061;52.236;5.188;2023-04-08T02:10:16;102289.03;;;10.59;91.99
64908;BME280;69061;52.236;5.188;2023-04-08T02:12:44;102294.25;;;10.55;91.44
64908;BME280;69061;52.236;5.188;2023-04-08T02:15:12;102291.25;;;10.57;92.56
64908;BME280;69061;52.236;5.188;2023-04-08T02:17:43;102289.81;;;10.59;94.26
64908;BME280;69061;52.236;5.188;2023-04-08T02:20:15;102296.34;;;10.62;91.95
64908;BME280;69061;52.236;5.188;2023-04-08T02:22:47;102296.25;;;10.58;91.12
64908;BME280;69061;52.236;5.188;2023-04-08T02:25:16;102294.34;;;10.59;90.46
64908;BME280;69061;52.236;5.188;2023-04-08T02:27:46;102290.47;;;10.56;91.24
64908;BME280;69061;52.236;5.188;2023-04-08T02:30:14;102300.66;;;10.54;90.57
64908;BME280;69061;52.236;5.188;2023-04-08T02:32:43;102296.44;;;10.53;90.53
64908;BME280;69061;52.236;5.188;2023-04-08T02:35:11;102301.09;;;10.56;92.38
64908;BME280;69061;52.236;5.188;2023-04-08T02:37:40;102297.47;;;10.61;92.15
64908;BME280;69061;52.236;5.188;2023-04-08T02:40:22;102299.34;;;10.60;92.56
64908;BME280;69061;52.236;5.188;2023-04-08T02:42:49;102304.94;;;10.68;91.86
64908;BME280;69061;52.236;5.188;2023-04-08T02:45:15;102317.09;;;10.69;90.83
64908;BME280;69061;52.236;5.188;2023-04-08T02:47:44;102310.88;;;10.65;90.68
64908;BME280;69061;52.236;5.188;2023-04-08T02:50:10;102313.53;;;10.65;90.38
64908;BME280;69061;52.236;5.188;2023-04-08T02:52:37;102313.53;;;10.65;91.19
64908;BME280;69061;52.236;5.188;2023-04-08T02:55:05;102317.41;;;10.67;92.03
64908;BME280;69061;52.236;5.188;2023-04-08T02:57:34;102316.47;;;10.72;92.31
64908;BME280;69061;52.236;5.188;2023-04-08T03:00:01;102322.22;;;10.74;90.75
64908;BME280;69061;52.236;5.188;2023-04-08T03:02:28;102323.66;;;10.71;91.06
64908;BME280;69061;52.236;5.188;2023-04-08T03:04:56;102316.91;;;10.74;91.48
64908;BME280;69061;52.236;5.188;2023-04-08T03:07:22;102322.34;;;10.77;90.94
64908;BME280;69061;52.236;5.188;2023-04-08T03:09:49;102320.66;;;10.73;88.90
64908;BME280;69061;52.236;5.188;2023-04-08T03:12:16;102326.97;;;10.68;89.43
64908;BME280;69061;52.236;5.188;2023-04-08T03:14:43;102318.22;;;10.68;89.66
64908;BME280;69061;52.236;5.188;2023-04-08T03:17:09;102328.38;;;10.66;88.80
64908;BME280;69061;52.236;5.188;2023-04-08T03:19:36;102320.28;;;10.62;89.09
64908;BME280;69061;52.236;5.188;2023-04-08T03:22:03;102321.72;;;10.59;89.61
64908;BME280;69061;52.236;5.188;2023-04-08T03:24:30;102325.81;;;10.57;88.94
64908;BME280;69061;52.236;5.188;2023-04-08T03:26:57;102325.34;;;10.55;88.29
64908;BME280;69061;52.236;5.188;2023-04-08T03:29:24;102321.91;;;10.54;88.64
64908;BME280;69061;52.236;5.188;2023-04-08T03:31:51;102317.69;;;10.53;89.83
64908;BME280;69061;52.236;5.188;2023-04-08T03:34:17;102317.69;;;10.53;89.55
64908;BME280;69061;52.236;5.188;2023-04-08T03:36:44;102321.59;;;10.56;89.37
64908;BME280;69061;52.236;5.188;2023-04-08T03:39:12;102329.91;;;10.54;89.27
64908;BME280;69061;52.236;5.188;2023-04-08T03:41:39;102333.00;;;10.56;88.75
64908;BME280;69061;52.236;5.188;2023-04-08T03:44:05;102330.53;;;10.51;87.89
64908;BME280;69061;52.236;5.188;2023-04-08T03:46:32;102332.75;;;10.49;87.12
64908;BME280;69061;52.236;5.188;2023-04-08T03:48:58;102332.59;;;10.45;86.79
64908;BME280;69061;52.236;5.188;2023-04-08T03:51:25;102337.00;;;10.41;86.54
64908;BME280;69061;52.236;5.188;2023-04-08T03:53:52;102337.81;;;10.42;88.95
64908;BME280;69061;52.236;5.188;2023-04-08T03:56:20;102347.03;;;10.44;87.89
64908;BME280;69061;52.236;5.188;2023-04-08T03:58:47;102330.94;;;10.32;86.92
64908;BME280;69061;52.236;5.188;2023-04-08T04:01:13;102335.19;;;10.33;86.58
64908;BME280;69061;52.236;5.188;2023-04-08T04:03:40;102346.31;;;10.26;85.30
64908;BME280;69061;52.236;5.188;2023-04-08T04:06:06;102353.84;;;10.24;85.11
64908;BME280;69061;52.236;5.188;2023-04-08T04:08:33;102352.94;;;10.20;82.79
64908;BME280;69061;52.236;5.188;2023-04-08T04:11:00;102351.41;;;10.10;81.56
64908;BME280;69061;52.236;5.188;2023-04-08T04:13:28;102346.81;;;9.99;81.68
64908;BME280;69061;52.236;5.188;2023-04-08T04:15:54;102354.03;;;9.89;81.56
64908;BME280;69061;52.236;5.188;2023-04-08T04:18:21;102357.03;;;9.79;81.48
64908;BME280;69061;52.236;5.188;2023-04-08T04:20:48;102354.75;;;9.69;80.48
64908;BME280;69061;52.236;5.188;2023-04-08T04:23:14;102359.75;;;9.61;81.64
64908;BME280;69061;52.236;5.188;2023-04-08T04:25:41;102364.94;;;9.58;82.96
64908;BME280;69061;52.236;5.188;2023-04-08T04:28:08;102374.00;;;9.48;81.71
64908;BME280;69061;52.236;5.188;2023-04-08T04:30:37;102368.56;;;9.36;81.42
64908;BME280;69061;52.236;5.188;2023-04-08T04:33:03;102362.06;;;9.24;81.36
64908;BME280;69061;52.236;5.188;2023-04-08T04:35:30;102374.84;;;9.22;82.85
64908;BME280;69061;52.236;5.188;2023-04-08T04:37:57;102375.47;;;9.19;83.15
64908;BME280;69061;52.236;5.188;2023-04-08T04:40:23;102375.78;;;9.09;81.95
64908;BME280;69061;52.236;5.188;2023-04-08T04:42:50;102382.38;;;9.03;83.96
64908;BME280;69061;52.236;5.188;2023-04-08T04:45:16;102378.31;;;8.97;82.80
64908;BME280;69061;52.236;5.188;2023-04-08T04:47:44;102387.19;;;8.83;81.14
64908;BME280;69061;52.236;5.188;2023-04-08T04:50:11;102383.47;;;8.75;81.90
64908;BME280;69061;52.236;5.188;2023-04-08T04:52:37;102380.63;;;8.63;81.56
64908;BME280;69061;52.236;5.188;2023-04-08T04:55:05;102388.09;;;8.52;80.97
64908;BME280;69061;52.236;5.188;2023-04-08T04:57:31;102396.22;;;8.47;81.68
64908;BME280;69061;52.236;5.188;2023-04-08T04:59:58;102391.66;;;8.39;82.02
64908;BME280;69061;52.236;5.188;2023-04-08T05:02:24;102386.50;;;8.34;81.62
64908;BME280;69061;52.236;5.188;2023-04-08T05:04:53;102392.56;;;8.25;81.56
64908;BME280;69061;52.236;5.188;2023-04-08T05:07:20;102400.94;;;8.19;82.88
64908;BME280;69061;52.236;5.188;2023-04-08T05:09:46;102388.75;;;8.09;82.21
64908;BME280;69061;52.236;5.188;2023-04-08T05:12:13;102408.53;;;8.12;83.18
64908;BME280;69061;52.236;5.188;2023-04-08T05:14:39;102404.19;;;8.07;83.08
64908;BME280;69061;52.236;5.188;2023-04-08T05:17:06;102405.88;;;8.03;81.98
64908;BME280;69061;52.236;5.188;2023-04-08T05:19:33;102406.94;;;8.02;82.58
64908;BME280;69061;52.236;5.188;2023-04-08T05:22:01;102413.94;;;7.98;81.50
64908;BME280;69061;52.236;5.188;2023-04-08T05:24:27;102407.69;;;7.93;83.16
64908;BME280;69061;52.236;5.188;2023-04-08T05:26:54;102411.91;;;7.95;82.56
64908;BME280;69061;52.236;5.188;2023-04-08T05:29:22;102413.00;;;7.93;83.61
64908;BME280;69061;52.236;5.188;2023-04-08T05:31:48;102402.59;;;7.97;84.90
64908;BME280;69061;52.236;5.188;2023-04-08T05:34:15;102414.56;;;7.95;83.46
64908;BME280;69061;52.236;5.188;2023-04-08T05:36:47;102417.53;;;7.93;82.55
64908;BME280;69061;52.236;5.188;2023-04-08T05:39:17;102424.50;;;7.89;81.43
64908;BME280;69061;52.236;5.188;2023-04-08T05:41:44;102425.41;;;7.84;81.63
64908;BME280;69061;52.236;5.188;2023-04-08T05:44:10;102425.78;;;7.91;84.32
64908;BME280;69061;52.236;5.188;2023-04-08T05:46:37;102423.28;;;7.95;82.97
64908;BME280;69061;52.236;5.188;2023-04-08T05:49:04;102430.44;;;7.95;82.10
64908;BME280;69061;52.236;5.188;2023-04-08T05:51:31;102430.75;;;7.93;82.45
64908;BME280;69061;52.236;5.188;2023-04-08T05:53:57;102431.88;;;8.01;84.00
64908;BME280;69061;52.236;5.188;2023-04-08T05:56:25;102432.34;;;8.03;82.24
64908;BME280;69061;52.236;5.188;2023-04-08T05:58:52;102433.94;;;8.13;84.74
64908;BME280;69061;52.236;5.188;2023-04-08T06:01:18;102439.88;;;8.18;83.55
64908;BME280;69061;52.236;5.188;2023-04-08T06:03:45;102450.66;;;8.22;82.52
64908;BME280;69061;52.236;5.188;2023-04-08T06:06:12;102450.03;;;8.25;83.52
64908;BME280;69061;52.236;5.188;2023-04-08T06:08:38;102443.34;;;8.27;83.22
64908;BME280;69061;52.236;5.188;2023-04-08T06:11:05;102442.41;;;8.23;80.55
64908;BME280;69061;52.236;5.188;2023-04-08T06:13:33;102454.06;;;8.22;80.93
64908;BME280;69061;52.236;5.188;2023-04-08T06:16:09;102456.72;;;8.22;82.33
64908;BME280;69061;52.236;5.188;2023-04-08T06:18:36;102463.59;;;8.23;82.66
64908;BME280;69061;52.236;5.188;2023-04-08T06:21:02;102462.53;;;8.33;81.79
64908;BME280;69061;52.236;5.188;2023-04-08T06:23:29;102464.53;;;8.27;79.73
64908;BME280;69061;52.236;5.188;2023-04-08T06:25:56;102462.53;;;8.33;81.83
64908;BME280;69061;52.236;5.188;2023-04-08T06:28:23;102468.94;;;8.41;80.60
64908;BME280;69061;52.236;5.188;2023-04-08T06:30:51;102472.69;;;8.40;78.80
64908;BME280;69061;52.236;5.188;2023-04-08T06:33:17;102478.59;;;8.37;77.59
64908;BME280;69061;52.236;5.188;2023-04-08T06:35:44;102478.41;;;8.33;77.38
64908;BME280;69061;52.236;5.188;2023-04-08T06:38:11;102489.97;;;8.37;77.15
64908;BME280;69061;52.236;5.188;2023-04-08T06:40:37;102480.75;;;8.35;77.35
64908;BME280;69061;52.236;5.188;2023-04-08T06:43:04;102482.31;;;8.36;76.57
64908;BME280;69061;52.236;5.188;2023-04-08T06:45:32;102492.63;;;8.37;77.04
64908;BME280;69061;52.236;5.188;2023-04-08T06:48:00;102500.91;;;8.45;76.63
64908;BME280;69061;52.236;5.188;2023-04-08T06:50:26;102502.34;;;8.51;77.76
64908;BME280;69061;52.236;5.188;2023-04-08T06:52:53;102499.25;;;8.57;78.09
64908;BME280;69061;52.236;5.188;2023-04-08T06:55:20;102500.22;;;8.62;77.11
64908;BME280;69061;52.236;5.188;2023-04-08T06:57:46;102498.69;;;8.69;77.11
64908;BME280;69061;52.236;5.188;2023-04-08T07:00:13;102510.84;;;8.79;76.20
64908;BME280;69061;52.236;5.188;2023-04-08T07:02:40;102509.94;;;8.84;75.53
64908;BME280;69061;52.236;5.188;2023-04-08T07:05:08;102507.75;;;8.86;75.57
64908;BME280;69061;52.236;5.188;2023-04-08T07:07:35;102514.81;;;8.90;75.71
64908;BME280;69061;52.236;5.188;2023-04-08T07:10:01;102514.50;;;9.01;75.34
64908;BME280;69061;52.236;5.188;2023-04-08T07:12:28;102521.34;;;9.10;75.28
64908;BME280;69061;52.236;5.188;2023-04-08T07:14:55;102526.19;;;9.17;73.97
64908;BME280;69061;52.236;5.188;2023-04-08T07:17:21;102526.53;;;9.24;72.84
64908;BME280;69061;52.236;5.188;2023-04-08T07:19:48;102519.81;;;9.36;72.42
64908;BME280;69061;52.236;5.188;2023-04-08T07:22:16;102527.63;;;9.50;72.08
64908;BME280;69061;52.236;5.188;2023-04-08T07:24:42;102525.91;;;9.63;71.57
64908;BME280;69061;52.236;5.188;2023-04-08T07:27:13;102539.81;;;9.77;71.27
64908;BME280;69061;52.236;5.188;2023-04-08T07:29:40;102538.84;;;9.90;70.17
64908;BME280;69061;52.236;5.188;2023-04-08T07:32:07;102544.59;;;10.01;69.45
64908;BME280;69061;52.236;5.188;2023-04-08T07:34:33;102540.19;;;10.14;69.27
64908;BME280;69061;52.236;5.188;2023-04-08T07:37:00;102538.72;;;10.25;68.47
64908;BME280;69061;52.236;5.188;2023-04-08T07:39:28;102534.19;;;10.35;67.84
64908;BME280;69061;52.236;5.188;2023-04-08T07:41:55;102546.97;;;10.50;67.67
64908;BME280;69061;52.236;5.188;2023-04-08T07:44:22;102542.06;;;10.61;67.36
64908;BME280;69061;52.236;5.188;2023-04-08T07:46:48;102547.16;;;10.75;66.78
64908;BME280;69061;52.236;5.188;2023-04-08T07:49:16;102546.00;;;10.85;65.54
64908;BME280;69061;52.236;5.188;2023-04-08T07:51:42;102552.06;;;10.94;65.36
64908;BME280;69061;52.236;5.188;2023-04-08T07:54:09;102557.13;;;11.08;64.87
64908;BME280;69061;52.236;5.188;2023-04-08T07:56:38;102557.19;;;11.20;64.05
64908;BME280;69061;52.236;5.188;2023-04-08T07:59:04;102556.97;;;11.34;63.58
64908;BME280;69061;52.236;5.188;2023-04-08T08:01:31;102559.53;;;11.43;63.73
64908;BME280;69061;52.236;5.188;2023-04-08T08:03:59;102566.28;;;11.61;62.98
64908;BME280;69061;52.236;5.188;2023-04-08T08:06:25;102560.81;;;11.79;62.87
64908;BME280;69061;52.236;5.188;2023-04-08T08:08:52;102552.34;;;11.98;62.62
64908;BME280;69061;52.236;5.188;2023-04-08T08:11:19;102558.59;;;12.15;62.51
64908;BME280;69061;52.236;5.188;2023-04-08T08:13:47;102560.28;;;12.32;61.28
64908;BME280;69061;52.236;5.188;2023-04-08T08:16:14;102565.41;;;12.49;61.10
64908;BME280;69061;52.236;5.188;2023-04-08T08:18:41;102551.19;;;12.70;60.75
64908;BME280;69061;52.236;5.188;2023-04-08T08:21:08;102558.28;;;12.90;60.56
64908;BME280;69061;52.236;5.188;2023-04-08T08:23:34;102564.25;;;13.12;59.13
64908;BME280;69061;52.236;5.188;2023-04-08T08:26:02;102564.66;;;13.26;57.87
64908;BME280;69061;52.236;5.188;2023-04-08T08:28:29;102567.50;;;13.46;57.76
64908;BME280;69061;52.236;5.188;2023-04-08T08:30:57;102568.00;;;13.64;57.66
64908;BME280;69061;52.236;5.188;2023-04-08T08:33:24;102568.28;;;13.75;56.52
64908;BME280;69061;52.236;5.188;2023-04-08T08:35:51;102571.56;;;13.84;56.13
64908;BME280;69061;52.236;5.188;2023-04-08T08:38:17;102578.09;;;13.99;56.55
64908;BME280;69061;52.236;5.188;2023-04-08T08:40:44;102572.31;;;14.13;55.55
64908;BME280;69061;52.236;5.188;2023-04-08T08:43:11;102576.53;;;14.30;55.29
64908;BME280;69061;52.236;5.188;2023-04-08T08:45:38;102578.44;;;14.45;55.06
64908;BME280;69061;52.236;5.188;2023-04-08T08:48:07;102573.34;;;14.56;54.72
64908;BME280;69061;52.236;5.188;2023-04-08T08:50:34;102578.00;;;14.75;54.49
64908;BME280;69061;52.236;5.188;2023-04-08T08:53:01;102579.44;;;14.89;53.73
64908;BME280;69061;52.236;5.188;2023-04-08T08:55:29;102579.69;;;14.99;53.46
64908;BME280;69061;52.236;5.188;2023-04-08T08:57:58;102581.94;;;15.17;53.74
64908;BME280;69061;52.236;5.188;2023-04-08T09:00:34;102580.97;;;15.25;52.04
64908;BME280;69061;52.236;5.188;2023-04-08T09:03:19;102579.28;;;15.37;53.43
64908;BME280;69061;52.236;5.188;2023-04-08T09:05:47;102583.84;;;15.56;52.34
64908;BME280;69061;52.236;5.188;2023-04-08T09:08:24;102586.72;;;15.66;51.99
64908;BME280;69061;52.236;5.188;2023-04-08T09:10:51;102585.81;;;15.78;51.90
64908;BME280;69061;52.236;5.188;2023-04-08T09:13:17;102586.44;;;15.91;50.71
64908;BME280;69061;52.236;5.188;2023-04-08T09:16:00;102592.28;;;15.97;49.55
64908;BME280;69061;52.236;5.188;2023-04-08T09:18:29;102588.25;;;16.07;50.13
64908;BME280;69061;52.236;5.188;2023-04-08T09:20:58;102592.88;;;16.10;50.72
64908;BME280;69061;52.236;5.188;2023-04-08T09:23:36;102591.16;;;16.21;50.71
64908;BME280;69061;52.236;5.188;2023-04-08T09:26:06;102592.94;;;16.37;50.52
64908;BME280;69061;52.236;5.188;2023-04-08T09:28:33;102594.34;;;16.54;49.67
64908;BME280;69061;52.236;5.188;2023-04-08T09:31:00;102612.22;;;16.69;49.33
64908;BME280;69061;52.236;5.188;2023-04-08T09:33:30;102608.25;;;16.86;48.61
64908;BME280;69061;52.236;5.188;2023-04-08T09:35:57;102605.81;;;17.04;48.05
64908;BME280;69061;52.236;5.188;2023-04-08T09:38:23;102610.28;;;17.23;48.18
64908;BME280;69061;52.236;5.188;2023-04-08T09:40:50;102597.63;;;17.24;46.75
64908;BME280;69061;52.236;5.188;2023-04-08T09:43:19;102598.22;;;17.44;46.27
64908;BME280;69061;52.236;5.188;2023-04-08T09:45:48;102603.03;;;17.58;46.20
64908;BME280;69061;52.236;5.188;2023-04-08T09:48:17;102604.25;;;17.67;46.57
64908;BME280;69061;52.236;5.188;2023-04-08T09:50:51;102600.09;;;17.74;45.63
64908;BME280;69061;52.236;5.188;2023-04-08T09:53:19;102612.50;;;17.85;44.88
64908;BME280;69061;52.236;5.188;2023-04-08T09:55:52;102612.56;;;17.89;44.83
64908;BME280;69061;52.236;5.188;2023-04-08T09:58:21;102608.84;;;18.01;44.33
64908;BME280;69061;52.236;5.188;2023-04-08T10:00:53;102611.22;;;18.10;43.71
64908;BME280;69061;52.236;5.188;2023-04-08T10:03:25;102602.44;;;18.16;43.85
64908;BME280;69061;52.236;5.188;2023-04-08T10:05:54;102609.47;;;18.28;45.13
64908;BME280;69061;52.236;5.188;2023-04-08T10:08:22;102603.78;;;18.41;44.06
64908;BME280;69061;52.236;5.188;2023-04-08T10:10:50;102599.25;;;18.52;44.43
64908;BME280;69061;52.236;5.188;2023-04-08T10:13:16;102589.72;;;18.65;44.72
64908;BME280;69061;52.236;5.188;2023-04-08T10:15:43;102590.94;;;18.79;45.14
64908;BME280;69061;52.236;5.188;2023-04-08T10:18:29;102593.28;;;18.84;42.44
64908;BME280;69061;52.236;5.188;2023-04-08T10:20:58;102596.81;;;18.95;42.49
64908;BME280;69061;52.236;5.188;2023-04-08T10:26:36;102594.09;;;18.88;41.40
64908;BME280;69061;52.236;5.188;2023-04-08T10:32:28;102591.72;;;18.83;42.39
64908;BME280;69061;52.236;5.188;2023-04-08T10:34:55;102587.59;;;18.96;42.80
64908;BME280;69061;52.236;5.188;2023-04-08T10:37:23;102585.69;;;19.00;42.49
64908;BME280;69061;52.236;5.188;2023-04-08T10:39:49;102576.50;;;19.09;42.33
64908;BME280;69061;52.236;5.188;2023-04-08T10:42:17;102584.97;;;19.14;42.10
64908;BME280;69061;52.236;5.188;2023-04-08T10:44:44;102579.28;;;19.27;40.97
64908;BME280;69061;52.236;5.188;2023-04-08T10:47:11;102585.06;;;19.36;40.29
64908;BME280;69061;52.236;5.188;2023-04-08T10:49:38;102577.75;;;19.44;39.52
64908;BME280;69061;52.236;5.188;2023-04-08T10:52:06;102576.63;;;19.52;38.69
64908;BME280;69061;52.236;5.188;2023-04-08T10:54:35;102571.25;;;19.56;39.46
64908;BME280;69061;52.236;5.188;2023-04-08T10:57:03;102576.63;;;19.63;39.20
64908;BME280;69061;52.236;5.188;2023-04-08T10:59:30;102572.78;;;19.64;39.17
64908;BME280;69061;52.236;5.188;2023-04-08T11:01:57;102577.03;;;19.65;38.67
64908;BME280;69061;52.236;5.188;2023-04-08T11:04:25;102577.41;;;19.67;38.72
64908;BME280;69061;52.236;5.188;2023-04-08T11:06:51;102577.81;;;19.69;39.55
64908;BME280;69061;52.236;5.188;2023-04-08T11:09:18;102574.34;;;19.72;38.72
64908;BME280;69061;52.236;5.188;2023-04-08T11:11:46;102574.78;;;19.85;38.89
64908;BME280;69061;52.236;5.188;2023-04-08T11:14:13;102580.56;;;19.98;38.65
64908;BME280;69061;52.236;5.188;2023-04-08T11:16:41;102579.41;;;20.06;37.88
64908;BME280;69061;52.236;5.188;2023-04-08T11:19:08;102577.09;;;20.15;38.17
64908;BME280;69061;52.236;5.188;2023-04-08T11:21:35;102565.53;;;20.22;39.30
64908;BME280;69061;52.236;5.188;2023-04-08T11:24:05;102576.72;;;20.24;38.87
64908;BME280;69061;52.236;5.188;2023-04-08T11:26:34;102576.72;;;20.24;38.54
64908;BME280;69061;52.236;5.188;2023-04-08T11:29:03;102570.53;;;20.13;39.25
64908;BME280;69061;52.236;5.188;2023-04-08T11:31:31;102575.16;;;20.12;38.31
64908;BME280;69061;52.236;5.188;2023-04-08T11:33:58;102578.25;;;20.14;38.78
64908;BME280;69061;52.236;5.188;2023-04-08T11:36:27;102575.94;;;20.16;38.38
64908;BME280;69061;52.236;5.188;2023-04-08T11:38:54;102576.31;;;20.26;38.65
64908;BME280;69061;52.236;5.188;2023-04-08T11:41:20;102576.72;;;20.24;38.75
64908;BME280;69061;52.236;5.188;2023-04-08T11:43:55;102571.31;;;20.17;38.99
64908;BME280;69061;52.236;5.188;2023-04-08T11:46:23;102566.28;;;20.15;39.00
64908;BME280;69061;52.236;5.188;2023-04-08T11:49:00;102569.00;;;20.19;39.28
64908;BME280;69061;52.236;5.188;2023-04-08T11:51:27;102572.47;;;20.23;38.21
64908;BME280;69061;52.236;5.188;2023-04-08T11:53:54;102567.44;;;20.29;38.32
64908;BME280;69061;52.236;5.188;2023-04-08T11:56:21;102562.38;;;20.42;39.28
64908;BME280;69061;52.236;5.188;2023-04-08T11:58:48;102571.25;;;20.57;39.36
64908;BME280;69061;52.236;5.188;2023-04-08T12:01:16;102580.09;;;20.64;39.08
64908;BME280;69061;52.236;5.188;2023-04-08T12:03:57;102582.06;;;20.53;37.04
64908;BME280;69061;52.236;5.188;2023-04-08T12:06:24;102584.78;;;20.46;37.59
64908;BME280;69061;52.236;5.188;2023-04-08T12:08:52;102581.31;;;20.38;38.25
64908;BME280;69061;52.236;5.188;2023-04-08T12:11:19;102588.25;;;20.35;38.27
64908;BME280;69061;52.236;5.188;2023-04-08T12:13:46;102582.06;;;20.39;37.92
64908;BME280;69061;52.236;5.188;2023-04-08T12:16:13;102579.38;;;20.42;38.03
64908;BME280;69061;52.236;5.188;2023-04-08T12:18:40;102576.28;;;20.51;37.82
64908;BME280;69061;52.236;5.188;2023-04-08T12:21:08;102583.63;;;20.43;38.19
64908;BME280;69061;52.236;5.188;2023-04-08T12:23:35;102573.59;;;20.40;38.52
64908;BME280;69061;52.236;5.188;2023-04-08T12:26:01;102574.34;;;20.48;37.88
64908;BME280;69061;52.236;5.188;2023-04-08T12:28:28;102577.44;;;20.46;37.43
64908;BME280;69061;52.236;5.188;2023-04-08T12:30:55;102568.97;;;20.37;37.58
64908;BME280;69061;52.236;5.188;2023-04-08T12:33:21;102567.78;;;20.42;37.08
64908;BME280;69061;52.236;5.188;2023-04-08T12:35:48;102566.63;;;20.43;36.47
64908;BME280;69061;52.236;5.188;2023-04-08T12:38:16;102567.00;;;20.52;36.80
64908;BME280;69061;52.236;5.188;2023-04-08T12:40:43;102565.84;;;20.64;36.74
64908;BME280;69061;52.236;5.188;2023-04-08T12:43:09;102575.09;;;20.66;36.38
64908;BME280;69061;52.236;5.188;2023-04-08T12:45:36;102568.13;;;20.62;35.60
64908;BME280;69061;52.236;5.188;2023-04-08T12:48:02;102575.09;;;20.63;35.64
64908;BME280;69061;52.236;5.188;2023-04-08T12:50:29;102567.78;;;20.60;36.69
64908;BME280;69061;52.236;5.188;2023-04-08T12:52:56;102565.03;;;20.63;36.48
64908;BME280;69061;52.236;5.188;2023-04-08T12:55:23;102569.31;;;20.57;36.34
64908;BME280;69061;52.236;5.188;2023-04-08T12:57:50;102568.94;;;20.51;37.49
64908;BME280;69061;52.236;5.188;2023-04-08T13:00:17;102568.59;;;20.46;37.64
64908;BME280;69061;52.236;5.188;2023-04-08T13:02:44;102562.44;;;20.16;37.09